createdAt,value
2022-11-02T00:00:17.204Z,33.10
2022-11-02T00:02:45.282Z,32.50
2022-11-02T00:05:14.227Z,33.47
2022-11-02T00:07:43.641Z,31.90
2022-11-02T00:10:12.060Z,32.60
2022-11-02T00:12:39.945Z,33.30
2022-11-02T00:15:09.344Z,32.90
2022-11-02T00:17:37.592Z,32.53
2022-11-02T00:20:06.869Z,31.90
2022-11-02T00:22:35.414Z,32.37
2022-11-02T00:25:07.616Z,31.03
2022-11-02T00:27:36.371Z,31.17
2022-11-02T00:30:04.422Z,32.53
2022-11-02T00:32:32.408Z,31.87
2022-11-02T00:35:00.299Z,30.70
2022-11-02T00:37:28.357Z,30.93
2022-11-02T00:39:56.281Z,31.67
2022-11-02T00:42:25.544Z,31.60
2022-11-02T00:44:53.424Z,30.67
2022-11-02T00:47:21.449Z,31.33
2022-11-02T00:49:49.371Z,31.13
2022-11-02T00:52:17.256Z,32.20
2022-11-02T00:54:45.148Z,32.33
2022-11-02T00:57:13.052Z,30.00
2022-11-02T00:59:42.308Z,30.53
2022-11-02T01:02:10.424Z,30.73
2022-11-02T01:04:38.717Z,28.30
2022-11-02T01:07:06.633Z,29.27
2022-11-02T01:09:35.044Z,30.40
2022-11-02T01:12:02.971Z,29.00
2022-11-02T01:14:31.047Z,30.33
2022-11-02T01:17:00.314Z,29.60
2022-11-02T01:19:28.418Z,29.93
2022-11-02T01:21:56.308Z,28.13
2022-11-02T01:24:24.371Z,28.57
2022-11-02T01:26:53.059Z,27.47
2022-11-02T01:29:20.973Z,28.33
2022-11-02T01:31:49.435Z,27.57
2022-11-02T01:34:18.807Z,26.83
2022-11-02T01:36:48.034Z,26.43
2022-11-02T01:39:16.587Z,26.13
2022-11-02T01:41:44.507Z,27.57
2022-11-02T01:44:31.482Z,25.83
2022-11-02T01:47:03.764Z,25.73
2022-11-02T01:49:36.718Z,26.33
2022-11-02T01:52:08.376Z,26.13
2022-11-02T01:54:41.014Z,26.07
2022-11-02T01:57:13.591Z,25.20
2022-11-02T01:59:49.126Z,24.97
2022-11-02T02:02:20.843Z,25.37
2022-11-02T02:04:54.787Z,25.00
2022-11-02T02:07:25.217Z,24.57
2022-11-02T02:09:53.794Z,24.90
2022-11-02T02:12:22.301Z,24.93
2022-11-02T02:14:50.425Z,25.17
2022-11-02T02:17:30.582Z,22.90
2022-11-02T02:20:06.273Z,24.13
2022-11-02T02:22:51.014Z,23.00
2022-11-02T02:25:48.732Z,22.27
2022-11-02T02:28:21.878Z,21.17
2022-11-02T02:30:55.381Z,22.27
2022-11-02T02:33:30.672Z,22.20
2022-11-02T02:36:04.014Z,22.07
2022-11-02T02:38:35.814Z,21.57
2022-11-02T02:41:13.509Z,20.67
2022-11-02T02:43:45.311Z,25.00
2022-11-02T02:46:21.354Z,24.47
2022-11-02T02:48:50.178Z,23.70
2022-11-02T02:51:23.613Z,24.33
2022-11-02T02:53:58.259Z,25.90
2022-11-02T02:56:27.902Z,24.53
2022-11-02T02:59:02.349Z,23.17
2022-11-02T03:01:30.785Z,25.47
2022-11-02T03:03:58.773Z,24.43
2022-11-02T03:06:30.717Z,23.37
2022-11-02T03:09:08.692Z,24.80
2022-11-02T03:11:41.886Z,24.20
2022-11-02T03:14:22.457Z,23.30
2022-11-02T03:17:06.910Z,23.97
2022-11-02T03:19:42.423Z,22.37
2022-11-02T03:22:18.853Z,24.00
2022-11-02T03:24:55.984Z,23.97
2022-11-02T03:27:30.517Z,26.80
2022-11-02T03:30:06.281Z,25.37
2022-11-02T03:32:39.537Z,23.83
2022-11-02T03:35:13.673Z,24.50
2022-11-02T03:37:47.300Z,25.33
2022-11-02T03:40:20.021Z,26.20
2022-11-02T03:42:49.938Z,23.83
2022-11-02T03:45:22.148Z,25.80
2022-11-02T03:47:52.912Z,25.77
2022-11-02T03:50:24.057Z,28.60
2022-11-02T03:52:57.320Z,28.17
2022-11-02T03:55:30.389Z,28.03
2022-11-02T03:57:59.124Z,28.90
2022-11-02T04:00:31.944Z,28.03
2022-11-02T04:03:04.055Z,29.13
2022-11-02T04:05:33.890Z,30.00
2022-11-02T04:08:19.864Z,30.40
2022-11-02T04:11:05.824Z,28.33
2022-11-02T04:13:51.449Z,28.43
2022-11-02T04:16:27.711Z,27.63
2022-11-02T04:19:13.595Z,28.27
2022-11-02T04:22:01.569Z,28.00
2022-11-02T04:24:46.886Z,27.63
2022-11-02T04:27:19.642Z,27.30
2022-11-02T04:29:48.679Z,29.40
2022-11-02T04:32:38.790Z,28.27
2022-11-02T04:35:07.138Z,27.60
2022-11-02T04:37:57.184Z,25.63
2022-11-02T04:40:25.348Z,22.23
2022-11-02T04:42:53.263Z,20.57
2022-11-02T04:45:21.231Z,21.83
2022-11-02T04:47:50.479Z,21.00
2022-11-02T04:50:18.507Z,20.47
2022-11-02T04:52:46.427Z,22.03
2022-11-02T04:55:14.320Z,21.37
2022-11-02T04:57:46.357Z,19.77
2022-11-02T05:00:15.581Z,19.03
2022-11-02T05:02:43.681Z,20.03
2022-11-02T05:05:13.033Z,19.77
2022-11-02T05:07:41.211Z,18.43
2022-11-02T05:10:09.483Z,19.13
2022-11-02T05:12:37.444Z,19.83
2022-11-02T05:15:05.924Z,20.27
2022-11-02T05:17:33.941Z,19.10
2022-11-02T05:20:01.812Z,18.40
2022-11-02T05:22:32.139Z,17.93
2022-11-02T05:25:00.155Z,18.00
2022-11-02T05:27:28.051Z,17.90
2022-11-02T05:29:55.947Z,17.33
2022-11-02T05:32:23.831Z,18.37
2022-11-02T05:34:51.776Z,18.20
2022-11-02T05:37:19.767Z,16.97
2022-11-02T05:39:50.490Z,16.53
2022-11-02T05:42:18.847Z,17.53
2022-11-02T05:44:46.764Z,16.67
2022-11-02T05:47:14.663Z,18.33
2022-11-02T05:49:42.559Z,17.97
2022-11-02T05:52:10.446Z,17.13
2022-11-02T05:54:38.356Z,17.13
2022-11-02T05:57:07.628Z,16.37
2022-11-02T05:59:35.509Z,16.20
2022-11-02T06:02:03.521Z,18.07
2022-11-02T06:04:31.553Z,16.77
2022-11-02T06:06:59.445Z,16.70
2022-11-02T06:09:27.686Z,17.23
2022-11-02T06:11:57.240Z,17.00
2022-11-02T06:14:26.660Z,15.77
2022-11-02T06:16:54.518Z,16.73
2022-11-02T06:19:22.408Z,16.47
2022-11-02T06:21:50.285Z,17.50
2022-11-02T06:24:18.190Z,16.87
2022-11-02T06:26:47.174Z,16.03
2022-11-02T06:29:15.101Z,17.83
2022-11-02T06:31:44.371Z,17.57
2022-11-02T06:34:12.261Z,18.07
2022-11-02T06:36:40.186Z,16.07
2022-11-02T06:39:08.089Z,17.13
2022-11-02T06:41:35.986Z,17.07
2022-11-02T06:44:03.964Z,16.40
2022-11-02T06:46:32.352Z,15.37
2022-11-02T06:49:01.787Z,16.70
2022-11-02T06:51:29.664Z,16.20
2022-11-02T06:53:57.613Z,17.53
2022-11-02T06:56:25.514Z,14.77
2022-11-02T06:58:53.413Z,14.87
2022-11-02T07:01:21.403Z,14.83
2022-11-02T07:03:49.376Z,16.03
2022-11-02T07:06:18.636Z,15.43
2022-11-02T07:08:46.506Z,16.70
2022-11-02T07:11:16.249Z,16.77
2022-11-02T07:13:44.549Z,17.20
2022-11-02T07:16:12.703Z,17.23
2022-11-02T07:18:41.079Z,18.93
2022-11-02T07:21:11.420Z,18.40
2022-11-02T07:23:40.809Z,17.13
2022-11-02T07:26:08.682Z,17.53
2022-11-02T07:28:38.288Z,16.63
2022-11-02T07:31:06.580Z,15.30
2022-11-02T07:33:34.438Z,16.33
2022-11-02T07:36:05.383Z,16.73
2022-11-02T07:38:33.324Z,15.17
2022-11-02T07:41:02.577Z,15.97
2022-11-02T07:43:30.613Z,15.07
2022-11-02T07:45:58.513Z,14.97
2022-11-02T07:48:28.076Z,14.53
2022-11-02T07:50:58.552Z,17.90
2022-11-02T07:53:26.504Z,13.97
2022-11-02T07:55:54.418Z,19.80
2022-11-02T07:58:23.653Z,25.00
2022-11-02T08:00:55.854Z,21.07
2022-11-02T08:03:27.470Z,21.77
2022-11-02T08:05:55.890Z,16.03
2022-11-02T08:08:25.364Z,11.80
2022-11-02T08:10:54.081Z,13.90
2022-11-02T08:13:26.083Z,13.60
2022-11-02T08:15:55.073Z,14.73
2022-11-02T08:18:24.884Z,13.53
2022-11-02T08:20:55.773Z,14.83
2022-11-02T08:23:24.866Z,15.17
2022-11-02T08:25:54.329Z,15.63
2022-11-02T08:28:26.025Z,14.07
2022-11-02T08:30:54.194Z,14.07
2022-11-02T08:33:22.463Z,15.33
2022-11-02T08:35:50.586Z,16.50
2022-11-02T08:38:22.385Z,12.73
2022-11-02T08:40:50.670Z,13.10
2022-11-02T08:43:18.570Z,11.73
2022-11-02T08:46:13.962Z,12.83
2022-11-02T08:48:35.744Z,11.53
2022-11-02T08:51:05.598Z,10.77
2022-11-02T08:53:33.544Z,10.80
2022-11-02T08:56:01.436Z,11.70
2022-11-02T08:58:29.395Z,12.60
2022-11-02T09:00:58.681Z,11.93
2022-11-02T09:03:28.228Z,11.00
2022-11-02T09:06:00.519Z,11.07
2022-11-02T09:08:28.940Z,12.27
2022-11-02T09:11:01.167Z,11.83
2022-11-02T09:13:29.414Z,13.10
2022-11-02T09:16:00.322Z,11.97
2022-11-02T09:18:28.342Z,13.37
2022-11-02T09:20:56.282Z,12.37
2022-11-02T09:23:24.618Z,11.20
2022-11-02T09:25:52.727Z,10.70
2022-11-02T09:28:20.842Z,11.77
2022-11-02T09:30:48.749Z,11.07
2022-11-02T09:33:18.060Z,11.53
2022-11-02T09:35:48.227Z,11.03
2022-11-02T09:38:18.376Z,11.33
2022-11-02T09:40:52.332Z,10.63
2022-11-02T09:43:32.200Z,11.73
2022-11-02T09:46:05.125Z,11.07
2022-11-02T09:48:36.748Z,12.10
2022-11-02T09:51:09.140Z,10.97
2022-11-02T09:53:47.840Z,12.20
2022-11-02T09:56:19.835Z,12.33
2022-11-02T09:58:52.757Z,12.37
2022-11-02T10:01:45.901Z,12.33
2022-11-02T10:04:50.294Z,13.37
2022-11-02T10:07:29.811Z,13.23
2022-11-02T10:10:00.740Z,13.47
2022-11-02T10:12:37.825Z,13.13
2022-11-02T10:15:11.272Z,12.73
2022-11-02T10:17:42.341Z,11.53
2022-11-02T10:20:23.432Z,13.10
2022-11-02T10:22:51.436Z,12.47
2022-11-02T10:25:19.534Z,12.13
2022-11-02T10:27:52.725Z,12.57
2022-11-02T10:30:22.201Z,11.00
2022-11-02T10:32:54.288Z,10.70
2022-11-02T10:35:41.152Z,11.43
2022-11-02T10:38:29.608Z,9.50
2022-11-02T10:41:12.679Z,9.90
2022-11-02T10:43:56.699Z,9.30
2022-11-02T10:46:35.813Z,9.23
2022-11-02T10:49:11.350Z,8.63
2022-11-02T10:51:40.793Z,9.00
2022-11-02T10:54:16.146Z,8.20
2022-11-02T10:56:47.610Z,6.87
2022-11-02T10:59:17.102Z,6.90
2022-11-02T11:02:04.240Z,6.87
2022-11-02T11:04:33.347Z,7.03
2022-11-02T11:07:07.174Z,7.30
2022-11-02T11:09:42.877Z,7.23
2022-11-02T11:12:21.076Z,6.53
2022-11-02T11:20:34.613Z,6.40
2022-11-02T11:23:18.997Z,6.13
2022-11-02T11:25:56.601Z,5.60
2022-11-02T11:28:27.028Z,6.47
2022-11-02T11:31:06.186Z,6.20
2022-11-02T11:33:42.422Z,5.53
2022-11-02T11:36:11.833Z,6.23
2022-11-02T11:38:49.213Z,5.97
2022-11-02T11:41:17.483Z,5.70
2022-11-02T11:43:48.054Z,4.57
2022-11-02T11:46:18.295Z,4.97
2022-11-02T11:48:50.054Z,4.53
2022-11-02T11:51:39.475Z,4.53
2022-11-02T11:54:25.587Z,5.43
2022-11-02T11:56:55.694Z,5.10
2022-11-02T11:59:29.586Z,5.60
2022-11-02T12:01:59.409Z,4.70
2022-11-02T12:04:35.628Z,4.83
2022-11-02T12:07:43.133Z,5.27
2022-11-02T12:10:17.961Z,5.60
2022-11-02T12:12:58.987Z,5.40
2022-11-02T12:15:51.406Z,4.40
2022-11-02T12:18:32.739Z,4.40
2022-11-02T12:21:15.856Z,4.00
2022-11-02T12:24:08.579Z,4.50
2022-11-02T12:26:50.236Z,4.60
2022-11-02T12:29:37.320Z,5.63
2022-11-02T12:32:15.361Z,5.10
2022-11-02T12:35:27.156Z,4.73
2022-11-02T12:38:06.953Z,4.43
2022-11-02T12:40:46.297Z,4.47
2022-11-02T12:43:33.134Z,4.17
2022-11-02T12:46:06.538Z,4.30
2022-11-02T12:48:43.473Z,3.77
2022-11-02T12:51:15.708Z,4.50
2022-11-02T12:53:50.014Z,3.60
2022-11-02T12:56:23.045Z,3.90
2022-11-02T12:58:52.945Z,3.17
2022-11-02T13:01:27.450Z,3.73
2022-11-02T13:04:00.045Z,3.43
2022-11-02T13:06:32.713Z,2.87
2022-11-02T13:09:06.355Z,3.17
2022-11-02T13:11:39.205Z,3.27
2022-11-02T13:14:15.528Z,3.30
2022-11-02T13:16:50.239Z,3.17
2022-11-02T13:19:22.205Z,2.80
2022-11-02T13:21:55.083Z,3.10
2022-11-02T13:24:31.714Z,2.43
2022-11-02T13:27:14.326Z,2.93
2022-11-02T13:29:50.789Z,2.80
2022-11-02T13:32:28.341Z,2.87
2022-11-02T13:35:00.039Z,2.60
2022-11-02T13:37:31.282Z,2.80
2022-11-02T13:40:02.449Z,2.30
2022-11-02T13:42:47.577Z,3.00
2022-11-02T13:45:42.753Z,2.50
2022-11-02T13:48:40.039Z,2.80
2022-11-02T13:51:17.157Z,3.00
2022-11-02T13:53:54.121Z,2.67
2022-11-02T13:56:28.347Z,2.77
2022-11-02T13:59:00.747Z,2.23
2022-11-02T14:01:34.003Z,2.70
2022-11-02T14:04:06.740Z,2.33
2022-11-02T14:06:45.736Z,2.53
2022-11-02T14:09:27.055Z,2.77
2022-11-02T14:12:13.112Z,2.77
2022-11-02T14:14:41.269Z,2.93
2022-11-02T14:17:15.123Z,3.03
2022-11-02T14:20:04.285Z,2.93
2022-11-02T14:22:33.065Z,3.03
2022-11-02T14:25:18.865Z,3.23
2022-11-02T14:27:47.064Z,2.87
2022-11-02T14:30:45.483Z,3.40
2022-11-02T14:33:37.931Z,3.47
2022-11-02T14:36:10.841Z,3.00
2022-11-02T14:38:53.466Z,2.90
2022-11-02T14:41:42.807Z,2.87
2022-11-02T14:44:42.401Z,3.37
2022-11-02T14:47:13.368Z,3.33
2022-11-02T14:49:50.008Z,3.43
2022-11-02T14:52:29.602Z,2.90
2022-11-02T14:55:03.933Z,2.70
2022-11-02T14:57:36.133Z,3.10
2022-11-02T15:00:17.876Z,2.97
2022-11-02T15:02:46.678Z,2.90
2022-11-02T15:05:27.325Z,2.87
2022-11-02T15:07:59.811Z,3.03
2022-11-02T15:10:43.375Z,2.70
2022-11-02T15:13:33.928Z,2.50
2022-11-02T15:16:23.466Z,2.83
2022-11-02T15:18:51.643Z,7.53
2022-11-02T15:21:28.512Z,9.93
2022-11-02T15:24:17.086Z,6.00
2022-11-02T15:26:49.855Z,4.50
2022-11-02T15:29:36.470Z,3.43
2022-11-02T15:32:07.083Z,3.90
2022-11-02T15:34:37.975Z,3.63
2022-11-02T15:37:08.260Z,3.70
2022-11-02T15:39:36.912Z,3.97
2022-11-02T15:42:08.633Z,4.50
2022-11-02T15:45:27.097Z,4.57
2022-11-02T15:48:17.346Z,3.87
2022-11-02T15:50:53.129Z,4.80
2022-11-02T15:53:36.719Z,3.50
2022-11-02T15:56:44.751Z,3.43
2022-11-02T15:59:48.590Z,5.87
2022-11-02T16:02:23.742Z,3.37
2022-11-02T16:04:54.264Z,3.90
2022-11-02T16:07:29.134Z,3.73
2022-11-02T16:10:23.073Z,3.90
2022-11-02T16:12:58.085Z,3.57
2022-11-02T16:15:26.353Z,3.70
2022-11-02T16:17:54.982Z,3.60
2022-11-02T16:20:26.433Z,4.10
2022-11-02T16:22:56.693Z,4.23
2022-11-02T16:25:39.724Z,4.17
2022-11-02T16:28:20.331Z,5.00
2022-11-02T16:31:17.229Z,4.37
2022-11-02T16:33:49.557Z,4.87
2022-11-02T16:36:19.633Z,4.50
2022-11-02T16:38:50.093Z,4.20
2022-11-02T16:41:19.825Z,4.93
2022-11-02T16:43:49.834Z,3.90
2022-11-02T16:46:18.821Z,15.63
2022-11-02T16:49:15.333Z,23.93
2022-11-02T16:51:50.889Z,5.93
2022-11-02T16:54:39.848Z,5.00
2022-11-02T16:57:16.356Z,5.13
2022-11-02T16:59:52.201Z,5.03
2022-11-02T17:02:24.311Z,5.60
2022-11-02T17:04:59.244Z,7.60
2022-11-02T17:07:33.147Z,8.03
2022-11-02T17:10:03.212Z,6.47
2022-11-02T17:12:35.872Z,5.93
2022-11-02T17:15:12.229Z,5.87
2022-11-02T17:17:41.245Z,5.73
2022-11-02T17:20:21.089Z,5.33
2022-11-02T17:22:58.731Z,4.80
2022-11-02T17:25:28.762Z,5.70
2022-11-02T17:27:59.483Z,4.70
2022-11-02T17:30:43.664Z,5.37
2022-11-02T17:33:19.614Z,4.67
2022-11-02T17:35:48.850Z,4.70
2022-11-02T17:38:17.449Z,4.93
2022-11-02T17:40:45.358Z,4.90
2022-11-02T17:43:13.628Z,4.80
2022-11-02T17:45:41.775Z,5.30
2022-11-02T17:48:11.310Z,4.90
2022-11-02T17:50:41.311Z,6.23
2022-11-02T17:53:13.904Z,7.00
2022-11-02T17:55:41.848Z,6.00
2022-11-02T17:58:10.829Z,7.47
2022-11-02T18:00:40.272Z,4.77
2022-11-02T18:03:15.325Z,5.63
2022-11-02T18:05:46.633Z,5.60
2022-11-02T18:08:18.057Z,5.43
2022-11-02T18:10:47.994Z,5.13
2022-11-02T18:13:18.183Z,6.70
2022-11-02T18:15:48.351Z,6.63
2022-11-02T18:18:16.519Z,4.70
2022-11-02T18:20:44.719Z,4.73
2022-11-02T18:23:16.965Z,5.77
2022-11-02T18:25:45.423Z,7.77
2022-11-02T18:28:13.931Z,7.53
2022-11-02T18:30:44.145Z,6.00
2022-11-02T18:33:14.383Z,5.10
2022-11-02T18:35:44.160Z,5.60
2022-11-02T18:38:12.714Z,8.30
2022-11-02T18:40:40.595Z,9.17
2022-11-02T18:43:09.034Z,12.90
2022-11-02T18:45:37.338Z,18.27
2022-11-02T18:48:05.646Z,22.13
2022-11-02T18:50:34.961Z,20.63
2022-11-02T18:53:02.867Z,24.33
2022-11-02T18:55:30.757Z,20.90
2022-11-02T18:57:58.758Z,28.23
2022-11-02T19:00:26.634Z,25.20
2022-11-02T19:02:54.547Z,18.90
2022-11-02T19:05:40.156Z,19.53
2022-11-02T19:08:27.998Z,18.77
2022-11-02T19:10:55.990Z,17.27
2022-11-02T19:13:23.973Z,19.97
2022-11-02T19:15:51.877Z,19.77
2022-11-02T19:18:19.763Z,14.73
2022-11-02T19:20:47.629Z,16.57
2022-11-02T19:23:16.855Z,15.37
2022-11-02T19:25:51.275Z,11.20
2022-11-02T19:28:19.217Z,12.27
2022-11-02T19:30:47.134Z,8.80
2022-11-02T19:33:15.049Z,11.07
2022-11-02T19:35:42.934Z,6.17
2022-11-02T19:38:10.837Z,8.30
2022-11-02T19:40:40.105Z,9.43
2022-11-02T19:43:08.346Z,8.37
2022-11-02T19:45:36.477Z,8.50
2022-11-02T19:48:04.888Z,9.07
2022-11-02T19:50:33.260Z,12.37
2022-11-02T19:53:01.291Z,11.10
2022-11-02T19:55:29.753Z,10.10
2022-11-02T19:57:59.012Z,7.43
2022-11-02T20:00:26.882Z,7.00
2022-11-02T20:02:54.832Z,9.03
2022-11-02T20:05:22.832Z,7.00
2022-11-02T20:07:52.354Z,5.83
2022-11-02T20:10:20.262Z,5.83
2022-11-02T20:12:48.158Z,5.10
2022-11-02T20:15:17.490Z,4.97
2022-11-02T20:18:05.319Z,5.00
2022-11-02T20:20:33.590Z,5.00
2022-11-02T20:23:02.446Z,4.23
2022-11-02T20:25:30.399Z,3.57
2022-11-02T20:27:58.273Z,4.20
2022-11-02T20:30:27.491Z,4.70
2022-11-02T20:32:55.458Z,5.93
2022-11-02T20:35:25.880Z,5.10
2022-11-02T20:37:55.114Z,4.53
2022-11-02T20:40:23.836Z,4.53
2022-11-02T20:42:51.778Z,3.67
2022-11-02T20:45:19.671Z,3.93
2022-11-02T20:47:48.961Z,3.47
2022-11-02T20:50:19.417Z,3.97
2022-11-02T20:52:49.719Z,3.53
2022-11-02T20:55:17.759Z,3.97
2022-11-02T20:57:48.832Z,3.77
2022-11-02T21:00:18.681Z,4.37
2022-11-02T21:02:48.379Z,3.20
2022-11-02T21:05:16.455Z,3.20
2022-11-02T21:07:44.584Z,3.20
2022-11-02T21:10:12.490Z,3.50
2022-11-02T21:12:57.675Z,3.63
2022-11-02T21:15:25.604Z,2.90
2022-11-02T21:17:54.858Z,3.40
2022-11-02T21:20:39.220Z,3.50
2022-11-02T21:23:07.692Z,3.20
2022-11-02T21:25:36.541Z,4.17
2022-11-02T21:28:04.752Z,3.50
2022-11-02T21:30:32.735Z,3.30
2022-11-02T21:33:02.044Z,3.43
2022-11-02T21:35:29.959Z,3.43
2022-11-02T21:38:01.240Z,3.47
2022-11-02T21:40:31.818Z,3.30
2022-11-02T21:42:59.813Z,5.07
2022-11-02T21:45:27.714Z,4.00
2022-11-02T21:47:55.605Z,3.67
2022-11-02T21:50:24.870Z,3.43
2022-11-02T21:52:52.764Z,3.37
2022-11-02T21:55:20.683Z,4.00
2022-11-02T21:57:48.616Z,4.27
2022-11-02T22:00:17.197Z,3.47
2022-11-02T22:02:44.181Z,2.70
2022-11-02T22:05:32.142Z,3.10
2022-11-02T22:08:19.008Z,2.83
2022-11-02T22:10:47.050Z,4.10
2022-11-02T22:13:32.290Z,5.70
2022-11-02T22:16:08.101Z,4.23
2022-11-02T22:18:36.007Z,4.50
2022-11-02T22:21:03.980Z,3.80
2022-11-02T22:23:33.284Z,5.33
2022-11-02T22:26:02.593Z,4.00
2022-11-02T22:28:31.536Z,3.63
2022-11-02T22:30:59.617Z,3.17
2022-11-02T22:33:27.771Z,3.43
2022-11-02T22:35:55.701Z,4.67
2022-11-02T22:38:40.950Z,4.80
2022-11-02T22:41:10.243Z,4.73
2022-11-02T22:43:38.143Z,3.77
2022-11-02T22:46:07.960Z,3.67
2022-11-02T22:48:36.595Z,3.27
2022-11-02T22:51:06.141Z,3.57
2022-11-02T22:53:34.367Z,4.00
2022-11-02T22:56:03.668Z,3.17
2022-11-02T22:58:33.911Z,3.07
2022-11-02T23:01:01.837Z,2.50
2022-11-02T23:03:32.655Z,2.90
2022-11-02T23:06:00.948Z,3.20
2022-11-02T23:08:29.253Z,2.80
2022-11-02T23:11:15.844Z,2.50
2022-11-02T23:13:46.271Z,3.40
2022-11-02T23:16:24.313Z,2.60
2022-11-02T23:19:17.840Z,3.30
2022-11-02T23:21:50.020Z,2.77
2022-11-02T23:24:36.117Z,2.90
2022-11-02T23:27:04.799Z,2.90
2022-11-02T23:29:51.361Z,3.10
2022-11-02T23:32:29.354Z,2.83
2022-11-02T23:35:16.252Z,2.73
2022-11-02T23:37:45.556Z,2.47
2022-11-02T23:40:15.708Z,2.70
2022-11-02T23:42:44.584Z,2.40
2022-11-02T23:45:13.827Z,2.30
2022-11-02T23:48:01.708Z,2.17
2022-11-02T23:50:49.783Z,2.37
2022-11-02T23:53:36.789Z,2.30
2022-11-02T23:56:23.851Z,2.60
2022-11-02T23:59:06.506Z,2.87
